createdAt,value
2018-09-09T00:01:02.378Z,99.90
2018-09-09T00:03:30.574Z,99.90
2018-09-09T00:05:58.828Z,99.90
2018-09-09T00:08:27.137Z,99.90
2018-09-09T00:10:55.350Z,99.90
2018-09-09T00:13:23.528Z,99.90
2018-09-09T00:15:51.708Z,99.90
2018-09-09T00:18:19.897Z,99.90
2018-09-09T00:20:48.092Z,99.90
2018-09-09T00:23:16.327Z,99.90
2018-09-09T00:25:44.631Z,99.90
2018-09-09T00:28:12.909Z,99.90
2018-09-09T00:30:41.119Z,99.90
2018-09-09T00:33:09.327Z,99.90
2018-09-09T00:35:37.569Z,99.90
2018-09-09T00:38:05.859Z,99.90
2018-09-09T00:40:34.100Z,99.90
2018-09-09T00:43:02.295Z,99.90
2018-09-09T00:45:30.514Z,99.90
2018-09-09T00:47:58.756Z,99.90
2018-09-09T00:50:32.432Z,99.90
2018-09-09T00:53:06.117Z,99.90
2018-09-09T00:55:34.356Z,99.90
2018-09-09T00:58:02.529Z,99.90
2018-09-09T01:00:36.285Z,99.90
2018-09-09T01:03:04.536Z,99.90
2018-09-09T01:05:32.772Z,99.90
2018-09-09T01:08:00.953Z,99.90
2018-09-09T01:10:29.160Z,99.90
2018-09-09T01:12:57.972Z,99.90
2018-09-09T01:15:26.376Z,99.90
2018-09-09T01:17:54.584Z,99.90
2018-09-09T01:20:23.020Z,99.90
2018-09-09T01:22:51.225Z,99.90
2018-09-09T01:25:19.417Z,99.90
2018-09-09T01:27:47.625Z,99.90
2018-09-09T01:30:15.873Z,99.90
2018-09-09T01:32:44.025Z,99.90
2018-09-09T01:35:12.232Z,99.90
2018-09-09T01:37:40.477Z,99.90
2018-09-09T01:40:08.745Z,99.90
2018-09-09T01:42:36.953Z,99.90
2018-09-09T01:45:05.187Z,99.90
2018-09-09T01:47:33.418Z,99.90
2018-09-09T01:50:01.633Z,99.90
2018-09-09T01:52:29.876Z,99.90
2018-09-09T01:54:58.148Z,99.90
2018-09-09T01:57:26.332Z,99.90
2018-09-09T01:59:54.520Z,99.90
2018-09-09T02:02:22.725Z,99.90
2018-09-09T02:04:50.955Z,99.90
2018-09-09T02:07:19.156Z,99.90
2018-09-09T02:09:47.400Z,99.90
2018-09-09T02:12:15.561Z,99.90
2018-09-09T02:14:43.786Z,99.90
2018-09-09T02:17:12.043Z,99.90
2018-09-09T02:19:40.228Z,99.90
2018-09-09T02:22:08.464Z,99.90
2018-09-09T02:24:36.703Z,99.90
2018-09-09T02:27:05.049Z,99.90
2018-09-09T02:29:33.264Z,99.90
2018-09-09T02:32:01.531Z,99.90
2018-09-09T02:34:29.717Z,99.90
2018-09-09T02:36:57.905Z,99.90
2018-09-09T02:39:26.116Z,99.90
2018-09-09T02:41:54.312Z,99.90
2018-09-09T02:44:22.539Z,99.90
2018-09-09T02:46:50.794Z,99.90
2018-09-09T02:49:19.020Z,99.90
2018-09-09T02:51:47.215Z,99.90
2018-09-09T02:54:15.393Z,99.90
2018-09-09T02:56:43.621Z,99.90
2018-09-09T02:59:11.849Z,99.90
2018-09-09T03:01:40.016Z,99.90
2018-09-09T03:04:08.216Z,99.90
2018-09-09T03:06:36.402Z,99.90
2018-09-09T03:09:04.908Z,99.90
2018-09-09T03:11:33.122Z,99.90
2018-09-09T03:14:01.396Z,99.90
2018-09-09T03:16:29.611Z,99.90
2018-09-09T03:18:57.835Z,99.90
2018-09-09T03:21:26.064Z,99.90
2018-09-09T03:23:54.216Z,99.90
2018-09-09T03:26:22.550Z,99.90
2018-09-09T03:28:50.907Z,99.90
2018-09-09T03:31:19.069Z,99.90
2018-09-09T03:33:47.333Z,99.90
2018-09-09T03:36:15.549Z,99.90
2018-09-09T03:38:43.828Z,99.90
2018-09-09T03:41:12.115Z,99.90
2018-09-09T03:43:40.304Z,99.90
2018-09-09T03:46:08.504Z,99.90
2018-09-09T03:48:36.745Z,99.90
2018-09-09T03:51:04.992Z,99.90
2018-09-09T03:53:33.253Z,99.90
2018-09-09T03:56:01.489Z,99.90
2018-09-09T03:58:29.675Z,99.90
2018-09-09T04:00:57.904Z,99.90
2018-09-09T04:03:26.084Z,99.90
2018-09-09T04:05:54.344Z,99.90
2018-09-09T04:08:22.609Z,99.90
2018-09-09T04:10:50.800Z,99.90
2018-09-09T04:13:19.119Z,99.90
2018-09-09T04:15:47.316Z,99.90
2018-09-09T04:18:15.496Z,99.90
2018-09-09T04:20:43.803Z,99.90
2018-09-09T04:23:11.981Z,99.90
2018-09-09T04:25:40.225Z,99.90
2018-09-09T04:28:08.413Z,99.90
2018-09-09T04:30:36.624Z,99.90
2018-09-09T04:33:04.878Z,99.90
2018-09-09T04:35:33.065Z,99.90
2018-09-09T04:38:01.280Z,99.90
2018-09-09T04:40:29.531Z,99.90
2018-09-09T04:42:57.688Z,99.90
2018-09-09T04:45:25.878Z,99.90
2018-09-09T04:47:54.087Z,99.90
2018-09-09T04:50:22.297Z,99.90
2018-09-09T04:52:50.532Z,99.90
2018-09-09T04:55:18.764Z,99.90
2018-09-09T04:57:46.960Z,99.90
2018-09-09T05:00:15.151Z,99.90
2018-09-09T05:02:43.408Z,99.90
2018-09-09T05:05:11.578Z,99.90
2018-09-09T05:07:39.768Z,99.90
2018-09-09T05:10:07.977Z,99.90
2018-09-09T05:12:36.158Z,99.90
2018-09-09T05:15:04.365Z,99.90
2018-09-09T05:17:32.708Z,99.90
2018-09-09T05:20:00.919Z,99.90
2018-09-09T05:22:29.099Z,99.90
2018-09-09T05:24:57.307Z,99.90
2018-09-09T05:27:25.700Z,99.90
2018-09-09T05:29:53.913Z,99.90
2018-09-09T05:32:22.238Z,99.90
2018-09-09T05:34:50.425Z,99.90
2018-09-09T05:37:18.895Z,99.90
2018-09-09T05:39:47.256Z,99.90
2018-09-09T05:42:15.535Z,99.90
2018-09-09T05:44:43.781Z,99.90
2018-09-09T05:47:11.920Z,99.90
2018-09-09T05:49:40.128Z,99.90
2018-09-09T05:52:08.399Z,99.90
2018-09-09T05:54:36.579Z,99.90
2018-09-09T05:57:04.788Z,99.90
2018-09-09T05:59:33.014Z,99.90
2018-09-09T06:02:01.277Z,99.90
2018-09-09T06:04:29.457Z,99.90
2018-09-09T06:06:58.471Z,99.90
2018-09-09T06:09:26.744Z,99.90
2018-09-09T06:11:54.946Z,99.90
2018-09-09T06:14:23.185Z,99.90
2018-09-09T06:16:51.360Z,99.90
2018-09-09T06:19:19.591Z,99.90
2018-09-09T06:21:47.837Z,99.90
2018-09-09T06:24:16.037Z,99.90
2018-09-09T06:26:44.295Z,99.90
2018-09-09T06:29:12.480Z,99.90
2018-09-09T06:31:40.712Z,99.90
2018-09-09T06:34:08.898Z,99.90
2018-09-09T06:36:37.123Z,99.90
2018-09-09T06:39:08.326Z,99.90
2018-09-09T06:41:36.476Z,99.90
2018-09-09T06:44:04.690Z,99.90
2018-09-09T06:46:32.888Z,99.90
2018-09-09T06:49:01.114Z,99.90
2018-09-09T06:51:29.346Z,99.90
2018-09-09T06:53:57.525Z,99.90
2018-09-09T06:56:25.724Z,99.90
2018-09-09T06:58:53.893Z,99.90
2018-09-09T07:01:22.056Z,99.90
2018-09-09T07:03:50.270Z,99.90
2018-09-09T07:06:18.482Z,99.90
2018-09-09T07:08:46.684Z,99.90
2018-09-09T07:11:14.864Z,99.90
2018-09-09T07:13:43.073Z,99.90
2018-09-09T07:16:11.290Z,99.90
2018-09-09T07:18:39.575Z,99.90
2018-09-09T07:21:07.967Z,99.90
2018-09-09T07:23:36.198Z,99.90
2018-09-09T07:26:05.063Z,99.90
2018-09-09T07:28:33.546Z,99.90
2018-09-09T07:31:01.812Z,99.90
2018-09-09T07:33:30.267Z,99.90
2018-09-09T07:35:58.665Z,99.90
2018-09-09T07:38:26.866Z,99.90
2018-09-09T07:40:55.335Z,99.90
2018-09-09T07:43:23.626Z,99.90
2018-09-09T07:45:51.811Z,99.90
2018-09-09T07:48:20.054Z,99.90
2018-09-09T07:50:48.975Z,99.90
2018-09-09T07:53:17.104Z,99.90
2018-09-09T07:55:45.313Z,99.90
2018-09-09T07:58:13.491Z,99.90
2018-09-09T08:00:41.699Z,99.90
2018-09-09T08:03:09.875Z,99.90
2018-09-09T08:05:38.092Z,99.90
2018-09-09T08:08:06.346Z,99.90
2018-09-09T08:10:34.770Z,99.90
2018-09-09T08:13:03.007Z,99.90
2018-09-09T08:15:33.312Z,98.90
2018-09-09T08:18:02.241Z,97.90
2018-09-09T08:20:30.452Z,97.50
2018-09-09T08:22:58.653Z,95.50
2018-09-09T08:25:26.905Z,94.20
2018-09-09T08:27:55.129Z,92.10
2018-09-09T08:30:23.325Z,90.40
2018-09-09T08:32:51.532Z,87.40
2018-09-09T08:35:19.874Z,86.10
2018-09-09T08:37:48.064Z,86.90
2018-09-09T08:40:16.356Z,83.60
2018-09-09T08:42:44.615Z,78.00
2018-09-09T08:45:12.772Z,73.00
2018-09-09T08:47:41.161Z,79.70
2018-09-09T08:50:09.380Z,81.60
2018-09-09T08:52:37.601Z,82.50
2018-09-09T08:55:05.803Z,82.70
2018-09-09T08:57:34.053Z,82.90
2018-09-09T09:00:02.184Z,82.60
2018-09-09T09:02:30.384Z,83.40
2018-09-09T09:04:58.589Z,83.30
2018-09-09T09:07:26.771Z,82.50
2018-09-09T09:09:54.923Z,85.70
2018-09-09T09:12:23.132Z,83.60
2018-09-09T09:14:51.397Z,85.00
2018-09-09T09:17:19.630Z,88.30
2018-09-09T09:19:47.812Z,84.00
2018-09-09T09:22:16.038Z,84.10
2018-09-09T09:24:44.244Z,79.00
2018-09-09T09:27:12.425Z,75.60
2018-09-09T09:29:46.038Z,71.00
2018-09-09T09:32:14.188Z,68.10
2018-09-09T09:34:43.539Z,68.50
2018-09-09T09:37:11.763Z,70.20
2018-09-09T09:39:39.935Z,67.80
2018-09-09T09:42:08.431Z,67.20
2018-09-09T09:44:36.706Z,64.70
2018-09-09T09:47:04.884Z,68.00
2018-09-09T09:49:34.868Z,68.60
2018-09-09T09:52:03.123Z,71.50
2018-09-09T09:54:31.355Z,72.80
2018-09-09T09:56:59.535Z,74.80
2018-09-09T09:59:27.734Z,76.80
2018-09-09T10:01:55.962Z,75.70
2018-09-09T10:04:24.173Z,69.20
2018-09-09T10:06:52.845Z,64.00
2018-09-09T10:09:21.187Z,64.70
2018-09-09T10:11:49.466Z,61.40
2018-09-09T10:14:17.697Z,57.60
2018-09-09T10:16:45.905Z,60.00
2018-09-09T10:19:14.099Z,54.50
2018-09-09T10:21:42.363Z,52.90
2018-09-09T10:24:10.606Z,51.50
2018-09-09T10:26:38.833Z,51.50
2018-09-09T10:29:07.065Z,51.50
2018-09-09T10:31:35.318Z,51.80
2018-09-09T10:34:03.627Z,51.60
2018-09-09T10:36:31.860Z,52.30
2018-09-09T10:39:00.107Z,49.80
2018-09-09T10:41:28.400Z,48.40
2018-09-09T10:43:56.638Z,49.00
2018-09-09T10:46:24.974Z,48.00
2018-09-09T10:48:54.237Z,48.70
2018-09-09T10:51:22.495Z,48.30
2018-09-09T10:53:51.749Z,48.50
2018-09-09T10:56:20.049Z,48.20
2018-09-09T10:58:48.455Z,50.00
2018-09-09T11:01:16.758Z,49.90
2018-09-09T11:03:44.967Z,48.00
2018-09-09T11:06:13.226Z,48.60
2018-09-09T11:08:41.420Z,50.20
2018-09-09T11:11:09.845Z,49.90
2018-09-09T11:13:38.041Z,53.20
2018-09-09T11:16:06.504Z,53.00
2018-09-09T11:18:34.776Z,49.30
2018-09-09T11:21:04.082Z,48.50
2018-09-09T11:23:32.281Z,48.10
2018-09-09T11:26:00.599Z,46.70
2018-09-09T11:28:28.881Z,47.50
2018-09-09T11:30:57.099Z,48.30
2018-09-09T11:33:25.340Z,50.00
2018-09-09T11:35:53.905Z,48.30
2018-09-09T11:38:22.194Z,46.50
2018-09-09T11:40:50.453Z,48.60
2018-09-09T11:43:18.777Z,50.20
2018-09-09T11:45:47.254Z,47.90
2018-09-09T11:48:15.549Z,48.30
2018-09-09T11:50:44.128Z,44.40
2018-09-09T11:53:12.746Z,47.60
2018-09-09T11:55:41.702Z,47.60
2018-09-09T11:58:10.452Z,47.70
2018-09-09T12:00:38.680Z,47.90
2018-09-09T12:03:07.138Z,48.30
2018-09-09T12:05:35.327Z,46.00
2018-09-09T12:08:03.573Z,46.60
2018-09-09T12:10:31.801Z,46.80
2018-09-09T12:13:00.399Z,45.20
2018-09-09T12:15:28.673Z,44.00
2018-09-09T12:17:56.888Z,46.00
2018-09-09T12:20:25.178Z,46.70
2018-09-09T12:22:53.385Z,46.80
2018-09-09T12:25:21.606Z,47.60
2018-09-09T12:27:49.821Z,47.50
2018-09-09T12:30:18.043Z,45.60
2018-09-09T12:32:46.393Z,45.10
2018-09-09T12:35:14.612Z,46.50
2018-09-09T12:37:42.897Z,47.90
2018-09-09T12:40:11.115Z,47.50
2018-09-09T12:42:39.457Z,47.40
2018-09-09T12:45:13.097Z,43.40
2018-09-09T12:48:45.761Z,47.30
2018-09-09T12:51:14.041Z,47.80
2018-09-09T12:53:42.319Z,44.00
2018-09-09T12:56:10.533Z,42.90
2018-09-09T12:58:38.756Z,44.70
2018-09-09T13:01:07.201Z,45.90
2018-09-09T13:03:35.493Z,47.40
2018-09-09T13:06:03.679Z,45.80
2018-09-09T13:08:31.930Z,48.20
2018-09-09T13:11:00.126Z,49.90
2018-09-09T13:13:28.356Z,51.90
2018-09-09T13:15:56.565Z,52.20
2018-09-09T13:18:25.134Z,50.50
2018-09-09T13:20:53.386Z,52.20
2018-09-09T13:23:21.632Z,52.70
2018-09-09T13:25:49.867Z,54.00
2018-09-09T13:28:18.054Z,53.00
2018-09-09T13:30:46.295Z,53.50
2018-09-09T13:33:14.464Z,52.40
2018-09-09T13:35:42.654Z,55.40
2018-09-09T13:38:10.868Z,54.90
2018-09-09T13:40:39.058Z,54.10
2018-09-09T13:43:07.223Z,54.00
2018-09-09T13:45:35.471Z,55.70
2018-09-09T13:48:03.683Z,55.90
2018-09-09T13:50:31.894Z,57.30
2018-09-09T13:53:00.057Z,56.60
2018-09-09T13:55:28.266Z,56.10
2018-09-09T13:57:56.560Z,56.30
2018-09-09T14:00:24.833Z,55.40
2018-09-09T14:02:53.173Z,55.20
2018-09-09T14:05:21.464Z,56.50
2018-09-09T14:07:49.798Z,55.30
2018-09-09T14:10:18.034Z,54.70
2018-09-09T14:12:46.297Z,51.90
2018-09-09T14:15:14.485Z,52.80
2018-09-09T14:17:42.704Z,55.00
2018-09-09T14:20:10.907Z,53.80
2018-09-09T14:22:39.180Z,55.20
2018-09-09T14:25:07.407Z,55.70
2018-09-09T14:27:35.604Z,55.00
2018-09-09T14:30:03.824Z,56.20
2018-09-09T14:32:32.100Z,56.80
2018-09-09T14:35:00.323Z,55.00
2018-09-09T14:37:28.475Z,52.60
2018-09-09T14:39:56.697Z,52.60
2018-09-09T14:42:24.894Z,53.40
2018-09-09T14:44:53.088Z,56.00
2018-09-09T14:47:21.316Z,52.90
2018-09-09T14:49:49.550Z,53.30
2018-09-09T14:52:17.841Z,52.30
2018-09-09T14:54:46.055Z,56.10
2018-09-09T14:57:14.225Z,55.30
2018-09-09T14:59:42.435Z,55.30
2018-09-09T15:02:10.608Z,57.30
2018-09-09T15:04:38.846Z,57.90
2018-09-09T15:07:07.526Z,58.60
2018-09-09T15:09:35.834Z,59.30
2018-09-09T15:12:04.019Z,57.80
2018-09-09T15:14:32.205Z,60.80
2018-09-09T15:17:00.539Z,58.80
2018-09-09T15:19:28.752Z,55.10
2018-09-09T15:21:56.989Z,57.00
2018-09-09T15:24:25.355Z,58.20
2018-09-09T15:26:53.654Z,57.90
2018-09-09T15:29:22.017Z,59.70
2018-09-09T15:31:50.214Z,60.50
2018-09-09T15:34:18.451Z,59.50
2018-09-09T15:36:46.710Z,59.20
2018-09-09T15:39:14.945Z,58.20
2018-09-09T15:41:43.105Z,60.90
2018-09-09T15:44:11.317Z,60.00
2018-09-09T15:46:39.535Z,61.30
2018-09-09T15:49:07.736Z,60.20
2018-09-09T15:51:35.999Z,58.70
2018-09-09T15:54:04.260Z,58.70
2018-09-09T15:56:32.439Z,67.00
2018-09-09T15:59:00.637Z,65.50
2018-09-09T16:01:28.947Z,59.60
2018-09-09T16:03:57.227Z,62.30
2018-09-09T16:06:25.448Z,63.90
2018-09-09T16:08:53.815Z,62.40
2018-09-09T16:11:22.092Z,59.50
2018-09-09T16:13:50.409Z,63.50
2018-09-09T16:16:18.686Z,62.60
2018-09-09T16:18:47.047Z,60.00
2018-09-09T16:21:15.319Z,68.50
2018-09-09T16:23:43.504Z,67.70
2018-09-09T16:26:11.827Z,60.00
2018-09-09T16:28:40.030Z,61.50
2018-09-09T16:31:08.252Z,68.10
2018-09-09T16:33:36.483Z,68.50
2018-09-09T16:36:04.727Z,63.90
2018-09-09T16:38:33.040Z,61.90
2018-09-09T16:41:01.620Z,64.20
2018-09-09T16:43:29.893Z,65.10
2018-09-09T16:45:58.169Z,62.80
2018-09-09T16:48:26.815Z,64.30
2018-09-09T16:50:55.364Z,60.90
2018-09-09T16:53:23.644Z,65.10
2018-09-09T16:55:51.822Z,62.60
2018-09-09T16:58:20.039Z,71.20
2018-09-09T17:00:48.243Z,73.80
2018-09-09T17:03:16.461Z,72.40
2018-09-09T17:05:44.648Z,78.70
2018-09-09T17:08:12.883Z,66.10
2018-09-09T17:10:41.127Z,70.70
2018-09-09T17:13:09.447Z,73.30
2018-09-09T17:15:37.664Z,77.90
2018-09-09T17:18:05.852Z,78.50
2018-09-09T17:20:34.093Z,73.60
2018-09-09T17:23:02.323Z,71.90
2018-09-09T17:25:30.564Z,71.20
2018-09-09T17:27:59.228Z,72.60
2018-09-09T17:30:27.387Z,72.40
2018-09-09T17:32:55.663Z,70.40
2018-09-09T17:35:23.924Z,71.70
2018-09-09T17:37:52.135Z,73.40
2018-09-09T17:40:20.383Z,75.30
2018-09-09T17:42:48.588Z,75.20
2018-09-09T17:45:16.942Z,74.70
2018-09-09T17:47:45.141Z,75.50
2018-09-09T17:50:13.400Z,76.20
2018-09-09T17:52:41.592Z,76.10
2018-09-09T17:55:09.816Z,75.90
2018-09-09T17:57:38.005Z,76.10
2018-09-09T18:00:09.606Z,76.40
2018-09-09T18:02:37.902Z,76.80
2018-09-09T18:05:06.097Z,78.70
2018-09-09T18:07:34.339Z,82.30
2018-09-09T18:10:02.539Z,84.90
2018-09-09T18:12:30.767Z,86.00
2018-09-09T18:14:58.964Z,87.90
2018-09-09T18:17:33.901Z,89.40
2018-09-09T18:20:02.137Z,90.30
2018-09-09T18:22:30.399Z,91.10
2018-09-09T18:24:58.648Z,91.80
2018-09-09T18:27:26.940Z,93.30
2018-09-09T18:29:55.243Z,93.80
2018-09-09T18:32:23.432Z,93.90
2018-09-09T18:34:51.651Z,94.30
2018-09-09T18:37:19.829Z,94.70
2018-09-09T18:39:48.060Z,95.40
2018-09-09T18:42:16.391Z,95.80
2018-09-09T18:44:44.738Z,96.30
2018-09-09T18:47:12.963Z,96.90
2018-09-09T18:49:41.622Z,97.60
2018-09-09T18:52:10.315Z,98.40
2018-09-09T18:54:39.130Z,98.90
2018-09-09T18:57:07.941Z,99.60
2018-09-09T18:59:36.747Z,99.90
2018-09-09T19:02:07.107Z,99.90
2018-09-09T19:04:36.587Z,99.90
2018-09-09T19:07:06.148Z,99.90
2018-09-09T19:09:36.036Z,99.90
2018-09-09T19:12:04.381Z,99.90
2018-09-09T19:14:32.709Z,99.90
2018-09-09T19:17:00.947Z,99.90
2018-09-09T19:19:29.186Z,99.90
2018-09-09T19:21:57.452Z,99.90
2018-09-09T19:24:25.672Z,99.90
2018-09-09T19:26:54.208Z,99.90
2018-09-09T19:29:22.477Z,99.90
2018-09-09T19:31:50.956Z,99.90
2018-09-09T19:34:19.363Z,99.90
2018-09-09T19:36:47.832Z,99.90
2018-09-09T19:39:16.293Z,99.90
2018-09-09T19:41:44.793Z,99.90
2018-09-09T19:44:13.195Z,99.90
2018-09-09T19:46:41.359Z,99.90
2018-09-09T19:49:10.234Z,99.90
2018-09-09T19:51:38.473Z,99.90
2018-09-09T19:54:06.774Z,99.90
2018-09-09T19:56:34.953Z,99.90
2018-09-09T19:59:03.180Z,99.90
2018-09-09T20:01:31.361Z,99.90
2018-09-09T20:03:59.552Z,99.90
2018-09-09T20:06:27.748Z,99.90
2018-09-09T20:08:56.039Z,99.90
2018-09-09T20:11:24.283Z,99.90
2018-09-09T20:13:52.708Z,99.90
2018-09-09T20:16:20.997Z,99.90
2018-09-09T20:18:49.245Z,99.90
2018-09-09T20:21:17.423Z,99.90
2018-09-09T20:23:46.359Z,99.90
2018-09-09T20:26:14.979Z,99.90
2018-09-09T20:28:43.288Z,99.90
2018-09-09T20:31:11.553Z,99.90
2018-09-09T20:33:40.056Z,99.90
2018-09-09T20:36:08.259Z,99.90
2018-09-09T20:38:36.530Z,99.90
2018-09-09T20:41:04.874Z,99.90
2018-09-09T20:43:33.221Z,99.90
2018-09-09T20:46:01.411Z,99.90
2018-09-09T20:48:30.152Z,99.90
2018-09-09T20:50:58.576Z,99.90
2018-09-09T20:53:26.785Z,99.90
2018-09-09T20:55:54.960Z,99.90
2018-09-09T20:58:23.176Z,99.90
2018-09-09T21:00:51.456Z,99.90
2018-09-09T21:03:19.796Z,99.90
2018-09-09T21:05:47.969Z,99.90
2018-09-09T21:08:16.233Z,99.90
2018-09-09T21:10:44.459Z,99.90
2018-09-09T21:13:12.704Z,99.90
2018-09-09T21:15:40.930Z,99.90
2018-09-09T21:18:09.211Z,99.90
2018-09-09T21:20:37.463Z,99.90
2018-09-09T21:23:05.703Z,99.90
2018-09-09T21:25:33.885Z,99.90
2018-09-09T21:28:02.106Z,99.90
2018-09-09T21:30:30.304Z,99.90
2018-09-09T21:32:58.545Z,99.90
2018-09-09T21:35:26.752Z,99.90
2018-09-09T21:37:54.926Z,99.90
2018-09-09T21:40:23.126Z,99.90
2018-09-09T21:42:51.330Z,99.90
2018-09-09T21:45:19.515Z,99.90
2018-09-09T21:47:47.734Z,99.90
2018-09-09T21:50:15.912Z,99.90
2018-09-09T21:52:44.126Z,99.90
2018-09-09T21:55:12.332Z,99.90
2018-09-09T21:57:40.631Z,99.90
2018-09-09T22:00:10.277Z,99.90
2018-09-09T22:02:38.450Z,99.90
2018-09-09T22:05:07.592Z,99.90
2018-09-09T22:07:35.813Z,99.90
2018-09-09T22:10:04.480Z,99.90
2018-09-09T22:12:32.653Z,99.90
2018-09-09T22:15:00.863Z,99.90
2018-09-09T22:17:29.163Z,99.90
2018-09-09T22:19:58.330Z,99.90
2018-09-09T22:22:26.547Z,99.90
2018-09-09T22:24:54.811Z,99.90
2018-09-09T22:27:22.987Z,99.90
2018-09-09T22:29:51.255Z,99.90
2018-09-09T22:32:19.451Z,99.90
2018-09-09T22:34:47.639Z,99.90
2018-09-09T22:37:15.832Z,99.90
2018-09-09T22:39:43.997Z,99.90
2018-09-09T22:42:12.171Z,99.90
2018-09-09T22:44:40.679Z,99.90
2018-09-09T22:47:09.105Z,99.90
2018-09-09T22:49:37.524Z,99.90
2018-09-09T22:52:06.587Z,99.90
2018-09-09T22:54:34.788Z,99.90
2018-09-09T22:57:03.009Z,99.90
2018-09-09T22:59:31.193Z,99.90
2018-09-09T23:01:59.522Z,99.90
2018-09-09T23:04:27.700Z,99.90
2018-09-09T23:06:55.887Z,99.90
2018-09-09T23:09:24.851Z,99.90
2018-09-09T23:11:53.101Z,99.90
2018-09-09T23:14:21.320Z,99.90
2018-09-09T23:16:49.505Z,99.90
2018-09-09T23:19:17.721Z,99.90
2018-09-09T23:21:45.914Z,99.90
2018-09-09T23:24:14.118Z,99.90
2018-09-09T23:26:42.319Z,99.90
2018-09-09T23:29:10.553Z,99.90
2018-09-09T23:31:38.763Z,99.90
2018-09-09T23:34:07.203Z,99.90
2018-09-09T23:36:35.425Z,99.90
2018-09-09T23:39:04.627Z,99.90
2018-09-09T23:41:32.836Z,99.90
2018-09-09T23:44:01.014Z,99.90
2018-09-09T23:46:29.252Z,99.90
2018-09-09T23:48:57.423Z,99.90
2018-09-09T23:51:25.610Z,99.90
2018-09-09T23:53:53.820Z,99.90
2018-09-09T23:56:21.971Z,99.90
2018-09-09T23:58:50.189Z,99.90
